Time;durP1;ratioP1;P1;durP2;ratioP2;P2;SDS_P1;SDS_P2;PMS_P1;PMS_P2;Temp;Humidity;BMP_temperature;BMP_pressure;BME280_temperature;BME280_humidity;BME280_pressure;Samples;Min_cycle;Max_cycle;Signal;HPM_P1;HPM_P2
2021/09/03 01:24:52;;;;;;;8.00;7.20;;;19.90;99.90;;;;;;2184777;54;20440;31
2021/09/03 01:27:23;;;;;;;6.38;5.78;;;14.40;99.90;;;;;;2605896;54;21630;31
2021/09/03 01:32:23;;;;;;;7.78;7.07;;;14.10;99.90;;;;;;2602233;46;20196;31
2021/09/03 01:34:55;;;;;;;7.15;6.32;;;14.10;99.90;;;;;;2602652;46;20196;31
2021/09/03 01:39:59;;;;;;;8.27;7.55;;;14.20;99.90;;;;;;2602324;54;20993;31
2021/09/03 01:42:31;;;;;;;9.63;7.25;;;14.20;99.90;;;;;;2602269;46;21147;31
2021/09/03 01:47:33;;;;;;;7.60;7.00;;;13.90;99.90;;;;;;2608725;39;20541;31
2021/09/03 01:50:02;;;;;;;9.68;7.05;;;13.80;99.90;;;;;;2603494;39;21477;31
2021/09/03 01:52:35;;;;;;;9.55;8.38;;;13.80;99.90;;;;;;2602105;46;21011;31
2021/09/03 01:55:07;;;;;;;10.23;8.30;;;13.80;99.90;;;;;;2601861;54;20991;31
2021/09/03 02:00:11;;;;;;;11.10;9.35;;;14.10;99.90;;;;;;2604635;46;20407;31
2021/09/03 02:02:41;;;;;;;10.85;8.85;;;14.00;99.90;;;;;;2602506;46;20971;31
2021/09/03 02:05:13;;;;;;;9.25;8.20;;;14.00;99.90;;;;;;2613528;39;20413;31
2021/09/03 02:07:46;;;;;;;9.48;8.38;;;14.10;99.90;;;;;;2602094;54;20608;31
2021/09/03 02:12:45;;;;;;;8.10;7.40;;;14.70;99.90;;;;;;2605583;46;20192;31
2021/09/03 02:15:15;;;;;;;9.18;7.75;;;14.90;99.90;;;;;;2608591;39;20473;31
2021/09/03 02:20:22;;;;;;;8.05;6.80;;;14.90;99.90;;;;;;2602192;46;20200;31
2021/09/03 02:22:54;;;;;;;7.10;6.40;;;14.90;99.90;;;;;;2602065;54;21124;31
2021/09/03 02:27:54;;;;;;;7.97;6.18;;;14.90;99.90;;;;;;2602037;46;20255;31
2021/09/03 02:30:25;;;;;;;7.45;6.35;;;15.00;99.90;;;;;;2601791;46;20584;31
2021/09/03 02:35:30;;;;;;;7.93;7.13;;;15.20;99.90;;;;;;2602243;39;20453;31
2021/09/03 02:37:59;;;;;;;7.15;5.75;;;15.10;99.90;;;;;;2604042;54;20194;31
2021/09/03 02:40:30;;;;;;;8.27;7.35;;;15.00;99.90;;;;;;2604446;46;20174;31
2021/09/03 02:45:31;;;;;;;7.85;7.00;;;14.30;99.90;;;;;;2601622;54;20235;31
2021/09/03 02:48:04;;;;;;;8.35;7.55;;;14.20;99.90;;;;;;2601901;46;21071;31
2021/09/03 02:50:34;;;;;;;8.93;6.38;;;14.00;99.90;;;;;;2601505;54;20192;31
2021/09/03 02:55:40;;;;;;;6.40;5.90;;;14.10;99.90;;;;;;2606393;47;20413;31
2021/09/03 02:58:11;;;;;;;7.10;6.13;;;14.10;99.90;;;;;;2604437;47;21581;31
2021/09/03 03:03:13;;;;;;;6.85;5.97;;;13.90;99.90;;;;;;2601425;54;21026;31
2021/09/03 03:05:45;;;;;;;6.77;6.17;;;13.80;99.90;;;;;;2602014;54;20583;31
2021/09/03 03:13:25;;;;;;;10.20;7.15;;;13.90;99.90;;;;;;2601353;54;20548;31
2021/09/03 03:15:53;;;;;;;9.50;7.75;;;13.90;99.90;;;;;;2600162;47;20252;31
2021/09/03 03:18:29;;;;;;;8.97;7.90;;;14.10;99.90;;;;;;2601294;54;21145;31
2021/09/03 03:21:00;;;;;;;7.83;6.97;;;14.40;99.90;;;;;;2601600;54;20560;31
2021/09/03 03:26:05;;;;;;;6.57;6.00;;;14.30;99.90;;;;;;2611043;39;21428;31
2021/09/03 03:28:34;;;;;;;7.35;6.65;;;13.30;99.90;;;;;;2602494;47;20192;31
2021/09/03 03:31:10;;;;;;;8.63;7.82;;;13.20;99.90;;;;;;2602348;54;21055;31
2021/09/03 03:33:41;;;;;;;8.55;6.90;;;13.30;99.90;;;;;;2603519;54;21041;31
2021/09/03 03:38:43;;;;;;;7.35;6.60;;;13.40;99.90;;;;;;2602708;47;20200;31
2021/09/03 03:41:14;;;;;;;7.68;6.97;;;13.20;99.90;;;;;;2608283;39;20556;31
2021/09/03 03:46:16;;;;;;;7.88;7.10;;;13.00;99.90;;;;;;2613880;31;20545;31
2021/09/03 03:48:44;;;;;;;9.95;8.60;;;13.20;99.90;;;;;;2604564;47;20997;31
2021/09/03 03:51:14;;;;;;;10.45;8.85;;;13.20;99.90;;;;;;2602689;54;20545;31
2021/09/03 03:53:44;;;;;;;9.70;8.70;;;13.00;99.90;;;;;;2602252;47;21055;31
2021/09/03 03:58:45;;;;;;;13.55;9.80;;;13.00;99.90;;;;;;2608935;39;20430;31
2021/09/03 04:01:16;;;;;;;11.00;9.47;;;13.40;99.90;;;;;;2602689;46;20198;31
2021/09/03 04:06:19;;;;;;;13.60;10.30;;;13.20;99.90;;;;;;2602442;46;20769;31
2021/09/03 04:11:19;;;;;;;17.35;11.32;;;12.90;99.90;;;;;;2605058;46;20603;31
2021/09/03 04:13:52;;;;;;;13.93;10.80;;;12.90;99.90;;;;;;2602911;46;21409;31
2021/09/03 04:18:51;;;;;;;13.07;11.07;;;13.00;99.90;;;;;;2602267;46;21409;31
2021/09/03 04:21:24;;;;;;;14.00;9.90;;;13.00;99.90;;;;;;2602591;54;20264;31
2021/09/03 04:26:25;;;;;;;12.55;10.85;;;13.40;99.90;;;;;;2602255;46;21174;31
2021/09/03 04:28:55;;;;;;;12.43;10.00;;;13.20;99.90;;;;;;2607538;46;20243;31
2021/09/03 04:33:56;;;;;;;12.60;11.30;;;12.70;99.90;;;;;;2602311;39;21381;31
2021/09/03 04:36:29;;;;;;;11.90;9.60;;;12.60;99.90;;;;;;2602829;54;20622;31
2021/09/03 04:41:28;;;;;;;10.25;9.35;;;12.80;99.90;;;;;;2602687;46;21583;31
2021/09/03 04:44:01;;;;;;;10.00;9.10;;;13.10;99.90;;;;;;2602381;54;20255;31
2021/09/03 04:49:01;;;;;;;9.30;8.48;;;12.90;99.90;;;;;;2602961;46;20207;31
2021/09/03 04:51:35;;;;;;;10.90;10.00;;;12.60;99.90;;;;;;2602663;46;20177;31
2021/09/03 04:56:35;;;;;;;18.77;11.38;;;12.70;99.90;;;;;;2602617;46;21126;31
2021/09/03 04:59:08;;;;;;;13.00;11.83;;;13.00;99.90;;;;;;2602319;54;20192;31
2021/09/03 05:04:07;;;;;;;11.32;9.90;;;12.80;99.90;;;;;;2602570;46;20960;31
2021/09/03 05:06:43;;;;;;;12.15;11.05;;;12.70;99.90;;;;;;2602139;47;20984;31
2021/09/03 05:11:43;;;;;;;13.20;12.00;;;12.50;99.90;;;;;;2601744;54;20216;31
2021/09/03 05:14:16;;;;;;;11.63;10.63;;;13.00;99.90;;;;;;2609016;39;21419;31
2021/09/03 05:19:20;;;;;;;10.90;9.80;;;13.00;99.90;;;;;;2615279;54;20279;-79
2021/09/03 05:22:02;;;;;;;12.50;9.95;;;13.10;99.90;;;;;;2623460;54;21062;-79
2021/09/03 05:24:36;;;;;;;20.75;10.65;;;12.80;99.90;;;;;;2633672;39;21343;-81
2021/09/03 05:29:31;;;;;;;14.18;11.00;;;12.10;99.90;;;;;;2620275;47;20255;-77
2021/09/03 05:32:05;;;;;;;23.50;12.10;;;11.90;99.90;;;;;;2609013;54;20251;31
2021/09/03 05:34:33;;;;;;;11.27;10.38;;;11.80;99.90;;;;;;2616379;47;20458;31
2021/09/03 05:40:03;;;;;;;13.30;11.95;;;11.90;99.90;;;;;;2630127;54;20208;-76
2021/09/03 05:42:36;;;;;;;14.88;13.48;;;12.10;99.90;;;;;;2625143;54;20252;-75
2021/09/03 05:45:05;;;;;;;75.65;16.90;;;12.50;99.90;;;;;;2622654;46;20225;-80
2021/09/03 05:47:43;;;;;;;61.97;15.00;;;12.30;99.90;;;;;;2623751;54;20207;-79
2021/09/03 05:52:55;;;;;;;21.75;19.65;;;11.80;99.90;;;;;;2625187;54;20198;31
2021/09/03 05:55:24;;;;;;;39.42;14.98;;;12.00;99.90;;;;;;2624745;47;20207;-79
2021/09/03 05:57:56;;;;;;;43.92;13.20;;;12.20;99.90;;;;;;2622496;47;20197;-76
2021/09/03 06:08:21;;;;;;;25.63;12.70;;;11.60;99.90;;;;;;2627742;47;20197;-77
2021/09/03 06:13:27;;;;;;;21.65;13.00;;;11.50;99.90;;;;;;2627704;54;20248;-78
2021/09/03 06:18:41;;;;;;;48.58;14.75;;;11.60;99.90;;;;;;2625047;54;20224;-80
2021/09/03 06:23:52;;;;;;;38.50;15.07;;;11.70;99.90;;;;;;2624268;54;20220;-79
2021/09/03 06:31:34;;;;;;;16.53;15.13;;;12.50;99.90;;;;;;2610157;47;20235;31
2021/09/03 06:34:06;;;;;;;17.38;15.10;;;13.00;99.90;;;;;;2627718;54;20208;31
2021/09/03 06:41:53;;;;;;;15.18;13.88;;;13.30;99.90;;;;;;2618380;54;20196;31
2021/09/03 06:44:24;;;;;;;16.75;15.25;;;13.60;99.90;;;;;;2613143;47;20220;31
2021/09/03 06:46:56;;;;;;;16.15;14.65;;;13.90;99.90;;;;;;2612367;47;21735;-79
2021/09/03 06:49:25;;;;;;;14.82;13.63;;;14.10;99.90;;;;;;2611334;54;20196;-41
2021/09/03 06:51:55;;;;;;;15.52;14.25;;;14.20;99.90;;;;;;2615074;54;20164;-39
2021/09/03 06:54:24;;;;;;;14.60;13.30;;;14.30;99.90;;;;;;2616022;54;20172;-39
2021/09/03 06:56:53;;;;;;;14.25;13.05;;;14.40;99.90;;;;;;2616638;54;20261;-39
2021/09/03 06:59:21;;;;;;;13.32;12.18;;;14.50;99.90;;;;;;2616362;54;20728;-38
2021/09/03 07:01:50;;;;;;;13.43;12.35;;;14.40;99.90;;;;;;2616547;39;20562;-40
2021/09/03 07:04:22;;;;;;;15.90;14.48;;;14.60;99.90;;;;;;2616623;39;20570;-39
2021/09/03 07:06:51;;;;;;;17.40;15.85;;;14.60;99.90;;;;;;2616576;47;20662;-37
2021/09/03 07:09:20;;;;;;;16.15;14.65;;;14.60;99.90;;;;;;2616379;54;20189;-37
2021/09/03 07:11:49;;;;;;;18.67;16.83;;;14.70;99.90;;;;;;2616308;54;20157;-37
2021/09/03 07:14:18;;;;;;;17.20;15.57;;;15.20;99.90;;;;;;2616823;39;20528;-37
2021/09/03 07:16:47;;;;;;;16.92;15.32;;;15.30;99.90;;;;;;2616332;54;20154;-38
2021/09/03 07:19:16;;;;;;;20.88;18.75;;;15.30;99.90;;;;;;2614306;54;20141;-38
2021/09/03 07:21:47;;;;;;;21.02;18.75;;;15.70;99.90;;;;;;2616196;54;20145;-38
2021/09/03 07:24:16;;;;;;;22.88;20.55;;;15.70;99.90;;;;;;2616249;54;20145;-38
2021/09/03 07:26:45;;;;;;;19.27;17.55;;;16.10;99.90;;;;;;2616193;54;20147;-38
2021/09/03 07:29:13;;;;;;;19.92;17.83;;;15.90;99.90;;;;;;2615971;54;20145;-38
2021/09/03 07:31:42;;;;;;;22.15;19.92;;;15.60;99.90;;;;;;2616141;46;20176;-40
2021/09/03 07:34:11;;;;;;;20.75;18.73;;;15.60;99.90;;;;;;2615616;54;20686;-38
2021/09/03 07:36:40;;;;;;;21.92;19.27;;;15.60;99.90;;;;;;2616038;54;20145;-38
2021/09/03 07:39:13;;;;;;;25.23;20.75;;;15.70;99.90;;;;;;2616011;54;20149;-38
2021/09/03 07:41:41;;;;;;;20.83;18.67;;;15.90;99.90;;;;;;2616020;54;20168;-39
2021/09/03 07:44:10;;;;;;;22.23;20.00;;;15.90;99.90;;;;;;2616044;54;20145;-39
2021/09/03 07:46:39;;;;;;;23.35;18.73;;;15.70;99.90;;;;;;2615082;54;20154;-38
2021/09/03 07:49:08;;;;;;;23.27;19.77;;;16.10;99.90;;;;;;2615801;47;20145;-38
2021/09/03 07:51:37;;;;;;;23.27;20.92;;;15.80;99.90;;;;;;2615485;54;20212;-38
2021/09/03 07:54:05;;;;;;;21.35;19.05;;;16.00;99.90;;;;;;2615184;54;20142;-38
2021/09/03 07:56:38;;;;;;;21.25;19.05;;;16.20;99.90;;;;;;2615989;39;20593;-38
2021/09/03 07:59:07;;;;;;;20.55;18.50;;;16.50;99.90;;;;;;2615743;54;20667;-38
2021/09/03 08:01:35;;;;;;;21.75;19.45;;;16.30;99.90;;;;;;2615978;47;20793;-38
2021/09/03 08:04:04;;;;;;;22.17;19.95;;;16.50;99.90;;;;;;2616087;54;20176;-38
2021/09/03 08:06:33;;;;;;;24.50;19.40;;;16.60;99.90;;;;;;2615948;54;20144;-38
2021/09/03 08:09:03;;;;;;;19.27;17.23;;;16.80;99.90;;;;;;2616049;54;20710;-38
2021/09/03 08:11:31;;;;;;;19.05;17.08;;;17.00;99.90;;;;;;2615913;54;20171;-38
2021/09/03 08:14:03;;;;;;;18.25;16.27;;;17.30;99.90;;;;;;2615903;50;20146;-38
2021/09/03 08:16:32;;;;;;;17.00;15.25;;;17.40;99.90;;;;;;2615466;54;20142;-37
2021/09/03 08:19:03;;;;;;;20.80;16.02;;;17.20;99.90;;;;;;2616455;47;20148;-37
2021/09/03 08:21:32;;;;;;;18.10;15.10;;;17.60;99.90;;;;;;2616547;54;20177;-38
2021/09/03 08:24:01;;;;;;;17.92;15.45;;;17.80;99.90;;;;;;2617268;39;20590;-39
2021/09/03 08:26:30;;;;;;;24.08;16.35;;;17.90;99.90;;;;;;2616658;54;20164;-39
2021/09/03 08:28:59;;;;;;;20.15;16.30;;;17.90;99.90;;;;;;2616440;54;20149;-39
2021/09/03 08:31:30;;;;;;;21.23;15.85;;;18.20;99.90;;;;;;2616502;54;20175;-39
2021/09/03 08:33:59;;;;;;;20.02;16.27;;;18.50;99.90;;;;;;2616609;54;20153;-38
2021/09/03 08:36:28;;;;;;;19.52;16.40;;;18.90;99.90;;;;;;2616514;54;20142;-39
2021/09/03 08:38:57;;;;;;;24.90;15.93;;;19.00;99.90;;;;;;2616644;54;20153;-39
2021/09/03 08:41:26;;;;;;;19.02;16.92;;;19.20;99.90;;;;;;2616083;54;20678;-39
2021/09/03 08:43:57;;;;;;;15.77;13.82;;;19.30;99.90;;;;;;2615539;54;20150;-38
2021/09/03 08:46:26;;;;;;;17.23;14.82;;;19.30;99.90;;;;;;2616705;54;20149;-39
2021/09/03 08:48:58;;;;;;;17.60;15.73;;;19.20;99.90;;;;;;2617230;39;20568;-38
2021/09/03 08:51:27;;;;;;;24.55;14.95;;;19.50;99.90;;;;;;2617515;39;20584;-37
2021/09/03 08:53:56;;;;;;;18.42;14.25;;;19.50;99.90;;;;;;2616786;54;20154;-38
2021/09/03 08:56:25;;;;;;;26.15;15.38;;;19.80;99.90;;;;;;2616647;54;20145;-38
2021/09/03 08:58:54;;;;;;;18.58;16.23;;;20.00;99.90;;;;;;2617038;54;20154;-37
2021/09/03 09:01:22;;;;;;;19.52;14.25;;;20.00;99.90;;;;;;2616566;54;20666;-38
2021/09/03 09:04:17;;;;;;;21.42;14.18;;;20.00;99.90;;;;;;2616691;54;20167;-38
2021/09/03 09:07:03;;;;;;;17.33;14.10;;;19.80;99.90;;;;;;2616846;54;20145;-38
2021/09/03 09:09:33;;;;;;;15.48;13.80;;;19.90;99.90;;;;;;2616696;54;21651;-38
2021/09/03 09:12:06;;;;;;;17.50;13.95;;;19.80;99.90;;;;;;2616613;54;20142;-39
2021/09/03 09:15:03;;;;;;;17.40;12.63;;;19.80;99.90;;;;;;2616462;54;20137;-39
2021/09/03 09:17:34;;;;;;;21.10;14.20;;;19.90;99.90;;;;;;2616795;54;20148;-39
2021/09/03 09:20:08;;;;;;;19.17;15.00;;;19.90;99.90;;;;;;2616518;54;20160;-37
2021/09/03 09:22:52;;;;;;;21.27;15.38;;;19.80;99.90;;;;;;2616822;54;20157;-38
2021/09/03 09:25:23;;;;;;;18.65;13.77;;;20.00;99.90;;;;;;2616654;54;20168;-37
2021/09/03 09:27:54;;;;;;;19.83;15.45;;;20.10;99.90;;;;;;2616061;54;20694;-38
2021/09/03 09:30:26;;;;;;;20.60;14.95;;;20.10;99.90;;;;;;2616403;54;20304;-38
2021/09/03 09:33:14;;;;;;;19.35;16.25;;;20.30;99.90;;;;;;2616405;54;20690;-39
2021/09/03 09:35:48;;;;;;;24.38;14.45;;;20.50;99.90;;;;;;2617293;31;20594;-38
2021/09/03 09:38:19;;;;;;;22.38;17.00;;;20.30;99.90;;;;;;2619725;54;20145;-38
2021/09/03 09:40:50;;;;;;;15.73;12.57;;;20.60;99.90;;;;;;2619922;54;20169;-38
2021/09/03 09:43:40;;;;;;;19.45;13.20;;;20.40;99.90;;;;;;2616624;54;20410;-37
2021/09/03 09:46:21;;;;;;;17.60;13.20;;;20.50;99.90;;;;;;2614808;54;20160;-38
2021/09/03 09:49:13;;;;;;;19.85;14.68;;;20.60;99.90;;;;;;2616655;47;20169;-38
2021/09/03 09:51:51;;;;;;;19.90;16.73;;;20.60;99.90;;;;;;2617010;50;20137;-39
2021/09/03 09:54:25;;;;;;;15.32;13.05;;;20.50;99.90;;;;;;2616076;54;20145;-38
2021/09/03 09:56:56;;;;;;;21.00;13.88;;;20.70;99.90;;;;;;2617121;54;20140;-38
2021/09/03 09:59:26;;;;;;;16.65;13.55;;;20.90;99.90;;;;;;2617177;54;20149;-38
2021/09/03 10:01:57;;;;;;;17.55;14.60;;;21.10;99.90;;;;;;2616917;54;20157;-38
2021/09/03 10:04:27;;;;;;;19.25;13.55;;;21.20;99.90;;;;;;2616576;54;20145;-38
2021/09/03 10:07:00;;;;;;;17.58;14.10;;;21.10;99.90;;;;;;2615905;47;20141;-38
2021/09/03 10:09:33;;;;;;;16.00;12.48;;;20.60;99.90;;;;;;2616467;54;20156;-38
2021/09/03 10:12:03;;;;;;;17.40;13.65;;;20.60;99.90;;;;;;2616127;54;20236;-37
2021/09/03 10:14:36;;;;;;;22.63;14.57;;;20.90;99.90;;;;;;2616055;54;20168;-38
2021/09/03 10:17:07;;;;;;;19.77;12.57;;;21.10;99.90;;;;;;2616603;39;20583;-38
2021/09/03 10:19:37;;;;;;;17.77;14.27;;;21.00;99.90;;;;;;2616060;54;20180;-38
2021/09/03 10:22:12;;;;;;;22.75;14.40;;;21.40;99.90;;;;;;2616227;54;20145;-38
2021/09/03 10:30:13;;;;;;;16.50;10.93;;;21.70;99.90;;;;;;2630161;54;20245;-82
2021/09/03 10:41:00;;;;;;;14.27;12.20;;;22.00;99.90;;;;;;2628946;54;20200;-82
2021/09/03 10:43:33;;;;;;;16.50;11.52;;;22.20;99.90;;;;;;2610862;47;20201;31
2021/09/03 10:48:38;;;;;;;14.45;10.85;;;22.20;99.90;;;;;;2623929;39;20267;31
2021/09/03 10:53:49;;;;;;;20.70;11.00;;;22.60;99.90;;;;;;2627489;54;20216;-81
2021/09/03 10:59:00;;;;;;;14.30;10.27;;;22.00;99.90;;;;;;2619105;54;22445;-81
2021/09/03 11:01:48;;;;;;;15.05;10.82;;;22.20;99.90;;;;;;2601936;54;21794;31
2021/09/03 11:12:23;;;;;;;15.10;10.15;;;23.30;99.90;;;;;;2660435;39;20828;31
2021/09/03 11:22:52;;;;;;;11.75;10.52;;;23.90;99.90;;;;;;2614492;47;20239;-83
2021/09/03 11:27:49;;;;;;;16.98;11.45;;;24.20;99.90;;;;;;2622760;47;20206;-81
2021/09/03 11:35:34;;;;;;;13.20;10.00;;;24.10;99.90;;;;;;2624202;54;20204;-79
2021/09/03 11:46:26;;;;;;;12.23;10.93;;;23.90;99.90;;;;;;2603532;54;21039;-83
2021/09/03 11:48:58;;;;;;;12.80;9.93;;;24.10;99.90;;;;;;2602836;54;20212;31
2021/09/03 12:02:23;;;;;;;15.77;10.90;;;24.50;99.90;;;;;;2617021;54;20693;-41
2021/09/03 12:04:52;;;;;;;14.45;9.55;;;24.40;99.90;;;;;;2615071;36;20169;-41
2021/09/03 12:07:22;;;;;;;14.38;10.43;;;24.70;99.90;;;;;;2616397;54;20141;-40
2021/09/03 12:09:55;;;;;;;10.20;8.20;;;25.10;99.90;;;;;;2616319;54;20184;-40
2021/09/03 12:12:25;;;;;;;14.23;9.88;;;25.10;99.90;;;;;;2616809;39;20542;-41
2021/09/03 12:14:59;;;;;;;12.57;9.40;;;25.20;99.90;;;;;;2615320;54;20261;-39
2021/09/03 12:17:44;;;;;;;12.40;10.20;;;25.10;99.90;;;;;;2616686;54;20149;-40
2021/09/03 12:20:18;;;;;;;14.48;9.55;;;25.00;99.90;;;;;;2616517;54;20176;-40
2021/09/03 12:22:55;;;;;;;14.52;10.18;;;25.10;99.90;;;;;;2616793;54;20153;-41
2021/09/03 12:25:33;;;;;;;13.20;10.82;;;25.40;99.90;;;;;;2616633;54;20217;-39
2021/09/03 12:28:13;;;;;;;11.75;8.52;;;25.60;99.90;;;;;;2617307;39;20556;-40
2021/09/03 12:30:43;;;;;;;12.20;9.30;;;25.40;99.90;;;;;;2616306;54;20248;-40
2021/09/03 12:33:38;;;;;;;13.05;7.82;;;25.60;99.90;;;;;;2616844;54;20153;-40
2021/09/03 12:36:11;;;;;;;11.18;7.72;;;25.60;99.90;;;;;;2616666;54;20164;-41
2021/09/03 12:38:43;;;;;;;10.68;9.30;;;25.70;99.90;;;;;;2616756;54;20763;-39
2021/09/03 12:41:19;;;;;;;17.20;10.15;;;25.70;99.90;;;;;;2616894;47;20176;-40
2021/09/03 12:43:52;;;;;;;11.95;9.13;;;25.10;99.90;;;;;;2616818;54;20133;-40
2021/09/03 12:46:22;;;;;;;8.82;6.93;;;25.10;99.90;;;;;;2616960;39;20556;-41
2021/09/03 12:49:17;;;;;;;7.35;6.45;;;25.20;99.90;;;;;;2616819;54;20257;-40
2021/09/03 12:51:47;;;;;;;6.35;4.88;;;25.20;99.90;;;;;;2616720;46;20199;-40
2021/09/03 12:54:18;;;;;;;8.05;5.68;;;24.90;99.90;;;;;;2616746;54;20356;-39
2021/09/03 12:56:47;;;;;;;6.95;5.80;;;25.00;99.90;;;;;;2617044;39;20608;-40
2021/09/03 12:59:16;;;;;;;8.18;5.70;;;24.60;99.90;;;;;;2616607;54;20153;-41
2021/09/03 13:01:44;;;;;;;9.02;7.72;;;24.90;99.90;;;;;;2616684;54;20154;-41
2021/09/03 13:04:20;;;;;;;14.55;8.80;;;24.90;99.90;;;;;;2615891;54;20137;-39
2021/09/03 13:06:51;;;;;;;8.82;7.88;;;25.20;99.90;;;;;;2616069;54;20156;-40
2021/09/03 13:09:21;;;;;;;14.32;8.57;;;25.10;99.90;;;;;;2618629;54;20138;-39
2021/09/03 13:11:51;;;;;;;8.38;7.32;;;25.10;99.90;;;;;;2619729;54;20172;-41
2021/09/03 13:14:21;;;;;;;10.65;7.72;;;25.30;99.90;;;;;;2617603;39;20587;-43
2021/09/03 13:16:51;;;;;;;12.45;9.25;;;25.30;99.90;;;;;;2616462;54;20164;-41
2021/09/03 13:19:23;;;;;;;9.48;7.35;;;25.30;99.90;;;;;;2616825;46;20164;-40
2021/09/03 13:21:51;;;;;;;12.55;8.77;;;25.30;99.90;;;;;;2617218;39;20607;-40
2021/09/03 13:24:21;;;;;;;10.40;9.02;;;25.80;99.90;;;;;;2616800;39;20574;-41
2021/09/03 13:26:51;;;;;;;12.30;7.85;;;25.70;99.90;;;;;;2616881;47;20154;-41
2021/09/03 13:29:20;;;;;;;9.13;7.93;;;25.70;99.90;;;;;;2616505;54;20160;-39
2021/09/03 13:31:49;;;;;;;7.78;6.78;;;25.90;99.90;;;;;;2616847;54;20149;-41
2021/09/03 13:34:17;;;;;;;8.70;7.18;;;25.80;99.90;;;;;;2616601;54;20686;-45
2021/09/03 13:36:49;;;;;;;11.52;7.20;;;25.70;99.90;;;;;;2616368;54;20156;-42
2021/09/03 13:39:17;;;;;;;10.63;8.38;;;25.10;99.90;;;;;;2616973;39;20550;-40
2021/09/03 13:41:46;;;;;;;7.47;6.72;;;25.10;99.90;;;;;;2616614;47;20145;-39
2021/09/03 13:44:15;;;;;;;10.93;7.40;;;25.60;99.90;;;;;;2617415;39;20220;-41
2021/09/03 13:46:45;;;;;;;8.80;7.28;;;26.00;99.90;;;;;;2616496;54;20156;-41
2021/09/03 13:49:14;;;;;;;12.75;7.95;;;26.30;99.90;;;;;;2614833;54;20137;-40
2021/09/03 13:51:42;;;;;;;9.82;7.40;;;26.20;99.90;;;;;;2616437;54;20172;-40
2021/09/03 13:54:14;;;;;;;8.95;6.70;;;26.00;99.90;;;;;;2616446;54;20156;-40
2021/09/03 13:56:43;;;;;;;12.73;9.10;;;25.80;99.90;;;;;;2616188;54;20909;-40
2021/09/03 13:59:12;;;;;;;8.07;7.28;;;26.40;99.90;;;;;;2616449;54;20146;-40
2021/09/03 14:01:41;;;;;;;9.98;7.32;;;26.40;99.90;;;;;;2616717;54;20177;-41
2021/09/03 14:04:10;;;;;;;7.30;6.47;;;27.00;99.90;;;;;;2616427;54;20153;-40
2021/09/03 14:06:40;;;;;;;7.95;6.30;;;26.80;99.90;;;;;;2616305;54;20753;-41
2021/09/03 14:09:09;;;;;;;10.32;6.57;;;27.00;99.90;;;;;;2616444;54;20149;-40
2021/09/03 14:11:43;;;;;;;7.82;7.03;;;27.10;99.90;;;;;;2616350;47;20184;-39
2021/09/03 14:14:13;;;;;;;7.30;5.97;;;28.00;99.90;;;;;;2616073;54;20168;-39
2021/09/03 14:16:42;;;;;;;9.45;6.55;;;28.20;99.90;;;;;;2616039;54;20152;-41
2021/09/03 14:19:23;;;;;;;10.95;6.78;;;28.30;99.90;;;;;;2616655;39;20554;-39
2021/09/03 14:21:52;;;;;;;11.98;8.43;;;28.60;99.90;;;;;;2616627;54;20152;-41
2021/09/03 14:24:21;;;;;;;11.77;8.50;;;28.30;99.90;;;;;;2616590;54;20138;-39
2021/09/03 14:26:53;;;;;;;13.20;8.98;;;28.30;99.90;;;;;;2616631;54;20188;-41
2021/09/03 14:29:22;;;;;;;8.88;7.22;;;28.60;99.90;;;;;;2616728;39;20566;-42
2021/09/03 14:31:51;;;;;;;8.32;7.35;;;28.30;99.90;;;;;;2616228;54;20241;-40
2021/09/03 14:34:20;;;;;;;9.23;7.32;;;28.00;99.90;;;;;;2616295;54;20149;-42
2021/09/03 14:36:50;;;;;;;14.00;9.05;;;28.20;99.90;;;;;;2616342;54;20145;-41
2021/09/03 14:39:19;;;;;;;10.00;8.13;;;28.90;99.90;;;;;;2616425;54;20153;-41
2021/09/03 14:41:48;;;;;;;10.27;8.95;;;28.10;99.90;;;;;;2616410;54;20138;-40
2021/09/03 14:44:19;;;;;;;12.43;9.80;;;28.00;99.90;;;;;;2616257;54;20160;-41
2021/09/03 14:46:48;;;;;;;10.73;9.60;;;28.50;99.90;;;;;;2616267;54;20141;-40
2021/09/03 14:49:17;;;;;;;11.35;7.18;;;28.70;99.90;;;;;;2616144;54;20153;-40
2021/09/03 14:51:46;;;;;;;11.05;9.18;;;29.00;99.90;;;;;;2616224;46;20187;-40
2021/09/03 14:54:14;;;;;;;18.10;9.60;;;29.10;99.90;;;;;;2616043;47;20149;-42
2021/09/03 14:56:43;;;;;;;11.93;10.82;;;29.50;99.90;;;;;;2615871;54;20144;-41
2021/09/03 14:59:12;;;;;;;10.57;9.18;;;29.60;99.90;;;;;;2615925;39;20578;-40
2021/09/03 15:01:43;;;;;;;11.23;9.82;;;29.40;99.90;;;;;;2615748;54;20184;-39
2021/09/03 15:04:12;;;;;;;11.75;10.43;;;29.40;99.90;;;;;;2616193;46;20176;-39
2021/09/03 15:06:41;;;;;;;10.93;9.75;;;29.80;99.90;;;;;;2616152;54;20148;-40
2021/09/03 15:09:13;;;;;;;11.40;9.13;;;30.20;99.90;;;;;;2616066;47;20146;-40
2021/09/03 15:11:42;;;;;;;10.23;9.20;;;30.00;99.90;;;;;;2615871;54;20267;-39
2021/09/03 15:14:12;;;;;;;10.80;9.52;;;29.80;99.90;;;;;;2615920;54;20145;-43
2021/09/03 15:16:43;;;;;;;11.10;9.23;;;29.50;99.90;;;;;;2616158;54;20145;-43
2021/09/03 15:19:13;;;;;;;10.43;8.82;;;30.10;99.90;;;;;;2616101;54;20145;-40
2021/09/03 15:21:42;;;;;;;10.75;8.60;;;30.70;99.90;;;;;;2616442;54;20180;-41
2021/09/03 15:24:11;;;;;;;12.10;7.85;;;30.70;99.90;;;;;;2616555;54;20133;-41
2021/09/03 15:26:39;;;;;;;12.25;8.20;;;30.60;99.90;;;;;;2616341;49;20152;-42
2021/09/03 15:29:08;;;;;;;9.10;7.80;;;30.40;99.90;;;;;;2617738;39;20566;-42
2021/09/03 15:31:37;;;;;;;12.30;7.63;;;30.50;99.90;;;;;;2617116;47;20173;-40
2021/09/03 15:34:08;;;;;;;10.85;7.68;;;30.80;99.90;;;;;;2616893;54;20150;-43
2021/09/03 15:36:37;;;;;;;8.77;5.60;;;30.30;99.90;;;;;;2616742;54;20209;-39
2021/09/03 15:39:07;;;;;;;7.57;6.68;;;29.60;99.90;;;;;;2617179;54;20145;-41
2021/09/03 15:41:36;;;;;;;7.63;6.32;;;29.90;99.90;;;;;;2616945;54;20157;-41
2021/09/03 15:44:05;;;;;;;8.23;6.60;;;30.60;99.90;;;;;;2616928;54;20187;-41
2021/09/03 15:46:34;;;;;;;8.98;6.57;;;30.80;99.90;;;;;;2616730;47;20172;-40
2021/09/03 15:49:03;;;;;;;8.85;6.07;;;31.10;99.90;;;;;;2617493;39;20562;-40
2021/09/03 15:51:34;;;;;;;9.10;7.03;;;31.30;99.90;;;;;;2616841;54;20169;-39
2021/09/03 15:54:03;;;;;;;7.53;5.93;;;30.50;99.90;;;;;;2616727;54;20153;-40
2021/09/03 15:56:32;;;;;;;8.32;7.10;;;30.50;99.90;;;;;;2618214;54;20137;-40
2021/09/03 15:59:00;;;;;;;6.38;5.68;;;30.80;99.90;;;;;;2621952;46;20168;-41
2021/09/03 16:01:29;;;;;;;8.27;6.72;;;30.60;99.90;;;;;;2623102;39;20590;-41
2021/09/03 16:03:58;;;;;;;9.02;6.47;;;30.50;99.90;;;;;;2622191;31;20708;-42
2021/09/03 16:06:27;;;;;;;9.88;6.00;;;28.70;99.90;;;;;;2619850;54;20158;-44
2021/09/03 16:08:58;;;;;;;8.25;6.10;;;28.00;99.90;;;;;;2619089;54;20141;-40
2021/09/03 16:11:27;;;;;;;7.95;6.40;;;27.30;99.90;;;;;;2619843;54;20180;-40
2021/09/03 16:13:56;;;;;;;10.02;6.55;;;26.90;99.90;;;;;;2619614;54;20666;-40
2021/09/03 16:16:29;;;;;;;9.75;6.22;;;26.60;99.90;;;;;;2619649;54;20149;-40
2021/09/03 16:18:58;;;;;;;7.65;5.82;;;27.60;99.90;;;;;;2619590;54;20161;-40
2021/09/03 16:21:29;;;;;;;9.75;6.70;;;27.80;99.90;;;;;;2619723;54;20168;-42
2021/09/03 16:24:00;;;;;;;8.73;6.50;;;28.10;99.90;;;;;;2619825;54;20674;-40
2021/09/03 16:26:29;;;;;;;8.68;6.88;;;28.10;99.90;;;;;;2627864;54;20242;-79
2021/09/03 16:28:58;;;;;;;8.13;6.82;;;27.70;99.90;;;;;;2635463;39;20972;-80
2021/09/03 16:31:28;;;;;;;9.13;6.70;;;27.70;99.90;;;;;;2630929;47;20151;-80
2021/09/03 16:33:56;;;;;;;8.00;6.50;;;28.30;99.90;;;;;;2630156;54;20209;-80
2021/09/03 16:36:27;;;;;;;11.68;7.00;;;28.10;99.90;;;;;;2630438;47;20136;-79
2021/09/03 16:39:01;;;;;;;8.93;7.57;;;28.80;99.90;;;;;;2629878;47;20161;-84
2021/09/03 17:00:11;;;;;;;7.88;6.38;;;27.00;99.90;;;;;;2630609;47;20223;-82
2021/09/03 17:24:33;;;;;;;10.23;7.28;;;24.40;99.90;;;;;;2631083;54;20200;-80
2021/09/03 17:40:33;;;;;;;14.02;7.72;;;23.70;99.90;;;;;;2630635;54;20201;-81
2021/09/03 17:48:38;;;;;;;12.15;7.50;;;23.10;99.90;;;;;;2631488;54;20204;-81
2021/09/03 17:56:16;;;;;;;13.50;8.80;;;22.60;99.90;;;;;;2629503;47;20232;-82
2021/09/03 18:04:28;;;;;;;11.55;9.02;;;22.40;99.90;;;;;;2641313;39;21154;-83
2021/09/03 18:12:42;;;;;;;15.00;8.73;;;21.90;99.90;;;;;;2629483;39;21218;31
2021/09/03 18:17:46;;;;;;;12.77;8.38;;;21.90;99.90;;;;;;2632455;54;20148;-82
2021/09/03 18:23:03;;;;;;;14.95;9.65;;;21.60;99.90;;;;;;2632478;54;20133;-84
2021/09/03 18:28:09;;;;;;;14.38;9.35;;;21.20;99.90;;;;;;2632423;54;20136;-82
2021/09/03 18:33:05;;;;;;;13.75;9.95;;;20.90;99.90;;;;;;2652317;39;20388;-84
2021/09/03 18:40:56;;;;;;;16.45;10.73;;;20.90;99.90;;;;;;2629514;54;20200;-81
2021/09/03 18:46:05;;;;;;;13.95;11.55;;;20.70;99.90;;;;;;2629857;54;20196;-82